sensor_id;sensor_type;location;lat;lon;timestamp;P1;durP1;ratioP1;P2;durP2;ratioP2
75892;SDS011;64572;50.950;3.676;2023-02-20T00:00:50;42.80;;;19.83;;
75892;SDS011;64572;50.950;3.676;2023-02-20T00:03:16;45.65;;;20.15;;
75892;SDS011;64572;50.950;3.676;2023-02-20T00:05:42;41.03;;;17.88;;
75892;SDS011;64572;50.950;3.676;2023-02-20T00:08:08;44.10;;;18.95;;
75892;SDS011;64572;50.950;3.676;2023-02-20T00:10:34;45.75;;;19.58;;
75892;SDS011;64572;50.950;3.676;2023-02-20T00:12:59;45.65;;;18.35;;
75892;SDS011;64572;50.950;3.676;2023-02-20T00:15:25;44.38;;;19.65;;
75892;SDS011;64572;50.950;3.676;2023-02-20T00:17:51;49.72;;;17.58;;
75892;SDS011;64572;50.950;3.676;2023-02-20T00:20:18;35.08;;;15.43;;
75892;SDS011;64572;50.950;3.676;2023-02-20T00:22:45;49.05;;;21.48;;
75892;SDS011;64572;50.950;3.676;2023-02-20T00:25:11;41.58;;;19.00;;
75892;SDS011;64572;50.950;3.676;2023-02-20T00:27:39;39.17;;;16.75;;
75892;SDS011;64572;50.950;3.676;2023-02-20T00:30:06;40.10;;;19.27;;
75892;SDS011;64572;50.950;3.676;2023-02-20T00:32:32;38.85;;;16.13;;
75892;SDS011;64572;50.950;3.676;2023-02-20T00:34:57;44.92;;;17.58;;
75892;SDS011;64572;50.950;3.676;2023-02-20T00:37:23;33.33;;;13.70;;
75892;SDS011;64572;50.950;3.676;2023-02-20T00:39:48;42.97;;;15.07;;
75892;SDS011;64572;50.950;3.676;2023-02-20T00:42:14;35.13;;;14.40;;
75892;SDS011;64572;50.950;3.676;2023-02-20T00:44:40;41.05;;;15.60;;
75892;SDS011;64572;50.950;3.676;2023-02-20T00:47:05;26.42;;;11.63;;
75892;SDS011;64572;50.950;3.676;2023-02-20T00:49:31;38.45;;;14.20;;
75892;SDS011;64572;50.950;3.676;2023-02-20T00:51:56;39.45;;;14.80;;
75892;SDS011;64572;50.950;3.676;2023-02-20T00:54:22;40.42;;;14.95;;
75892;SDS011;64572;50.950;3.676;2023-02-20T00:56:48;37.22;;;14.90;;
75892;SDS011;64572;50.950;3.676;2023-02-20T00:59:13;36.65;;;15.15;;
75892;SDS011;64572;50.950;3.676;2023-02-20T01:01:39;41.00;;;16.42;;
75892;SDS011;64572;50.950;3.676;2023-02-20T01:04:05;39.45;;;14.30;;
75892;SDS011;64572;50.950;3.676;2023-02-20T01:06:30;33.83;;;12.98;;
75892;SDS011;64572;50.950;3.676;2023-02-20T01:08:56;38.33;;;15.60;;
75892;SDS011;64572;50.950;3.676;2023-02-20T01:11:22;35.92;;;14.48;;
75892;SDS011;64572;50.950;3.676;2023-02-20T01:13:47;36.08;;;14.52;;
75892;SDS011;64572;50.950;3.676;2023-02-20T01:16:13;30.10;;;11.40;;
75892;SDS011;64572;50.950;3.676;2023-02-20T01:18:38;29.45;;;12.75;;
75892;SDS011;64572;50.950;3.676;2023-02-20T01:21:04;30.67;;;14.35;;
75892;SDS011;64572;50.950;3.676;2023-02-20T01:23:30;29.60;;;11.68;;
75892;SDS011;64572;50.950;3.676;2023-02-20T01:25:55;33.92;;;12.57;;
75892;SDS011;64572;50.950;3.676;2023-02-20T01:28:21;33.00;;;11.55;;
75892;SDS011;64572;50.950;3.676;2023-02-20T01:30:47;35.50;;;12.48;;
75892;SDS011;64572;50.950;3.676;2023-02-20T01:33:12;33.83;;;12.80;;
75892;SDS011;64572;50.950;3.676;2023-02-20T01:35:38;30.02;;;12.25;;
75892;SDS011;64572;50.950;3.676;2023-02-20T01:38:04;39.95;;;12.82;;
75892;SDS011;64572;50.950;3.676;2023-02-20T01:40:30;31.42;;;12.85;;
75892;SDS011;64572;50.950;3.676;2023-02-20T01:42:57;35.08;;;12.68;;
75892;SDS011;64572;50.950;3.676;2023-02-20T01:47:49;30.45;;;11.63;;
75892;SDS011;64572;50.950;3.676;2023-02-20T01:52:47;33.05;;;13.57;;
75892;SDS011;64572;50.950;3.676;2023-02-20T01:55:22;36.22;;;12.88;;
75892;SDS011;64572;50.950;3.676;2023-02-20T01:57:54;43.70;;;14.00;;
75892;SDS011;64572;50.950;3.676;2023-02-20T02:00:26;37.47;;;12.38;;
75892;SDS011;64572;50.950;3.676;2023-02-20T02:02:57;42.15;;;13.07;;
75892;SDS011;64572;50.950;3.676;2023-02-20T02:05:27;38.45;;;13.52;;
75892;SDS011;64572;50.950;3.676;2023-02-20T02:07:54;34.30;;;11.93;;
75892;SDS011;64572;50.950;3.676;2023-02-20T02:10:29;34.88;;;11.70;;
75892;SDS011;64572;50.950;3.676;2023-02-20T02:13:07;34.50;;;11.02;;
75892;SDS011;64572;50.950;3.676;2023-02-20T02:15:33;40.00;;;10.60;;
75892;SDS011;64572;50.950;3.676;2023-02-20T02:32:03;36.25;;;10.32;;
75892;SDS011;64572;50.950;3.676;2023-02-20T02:37:26;31.08;;;8.85;;
75892;SDS011;64572;50.950;3.676;2023-02-20T02:42:50;28.50;;;10.30;;
75892;SDS011;64572;50.950;3.676;2023-02-20T02:45:29;28.95;;;8.57;;
75892;SDS011;64572;50.950;3.676;2023-02-20T02:48:15;28.90;;;8.77;;
75892;SDS011;64572;50.950;3.676;2023-02-20T02:50:50;33.30;;;9.68;;
75892;SDS011;64572;50.950;3.676;2023-02-20T02:53:21;31.27;;;9.57;;
75892;SDS011;64572;50.950;3.676;2023-02-20T02:55:46;32.47;;;8.98;;
75892;SDS011;64572;50.950;3.676;2023-02-20T02:58:12;31.52;;;8.32;;
75892;SDS011;64572;50.950;3.676;2023-02-20T03:00:47;26.07;;;8.53;;
75892;SDS011;64572;50.950;3.676;2023-02-20T03:03:32;28.52;;;8.10;;
75892;SDS011;64572;50.950;3.676;2023-02-20T03:06:03;27.80;;;7.90;;
75892;SDS011;64572;50.950;3.676;2023-02-20T03:11:18;25.00;;;6.65;;
75892;SDS011;64572;50.950;3.676;2023-02-20T03:14:31;34.83;;;8.30;;
75892;SDS011;64572;50.950;3.676;2023-02-20T03:16:56;31.33;;;7.68;;
75892;SDS011;64572;50.950;3.676;2023-02-20T03:19:32;28.63;;;7.60;;
75892;SDS011;64572;50.950;3.676;2023-02-20T03:22:04;29.88;;;7.53;;
75892;SDS011;64572;50.950;3.676;2023-02-20T03:24:55;35.28;;;7.70;;
75892;SDS011;64572;50.950;3.676;2023-02-20T03:27:26;24.98;;;8.32;;
75892;SDS011;64572;50.950;3.676;2023-02-20T03:30:03;26.52;;;7.03;;
75892;SDS011;64572;50.950;3.676;2023-02-20T03:32:32;26.35;;;7.85;;
75892;SDS011;64572;50.950;3.676;2023-02-20T03:35:17;28.52;;;6.72;;
75892;SDS011;64572;50.950;3.676;2023-02-20T03:38:03;25.63;;;7.07;;
75892;SDS011;64572;50.950;3.676;2023-02-20T03:40:51;24.48;;;6.28;;
75892;SDS011;64572;50.950;3.676;2023-02-20T03:43:36;22.02;;;6.15;;
75892;SDS011;64572;50.950;3.676;2023-02-20T03:46:05;28.77;;;7.55;;
75892;SDS011;64572;50.950;3.676;2023-02-20T03:48:42;30.48;;;8.30;;
75892;SDS011;64572;50.950;3.676;2023-02-20T03:51:10;28.45;;;8.43;;
75892;SDS011;64572;50.950;3.676;2023-02-20T03:53:36;20.17;;;6.75;;
75892;SDS011;64572;50.950;3.676;2023-02-20T03:56:05;17.90;;;5.70;;
75892;SDS011;64572;50.950;3.676;2023-02-20T03:58:35;21.60;;;6.53;;
75892;SDS011;64572;50.950;3.676;2023-02-20T04:01:04;20.13;;;6.10;;
75892;SDS011;64572;50.950;3.676;2023-02-20T04:03:32;15.50;;;4.70;;
75892;SDS011;64572;50.950;3.676;2023-02-20T04:06:03;27.33;;;8.10;;
75892;SDS011;64572;50.950;3.676;2023-02-20T04:08:40;26.80;;;7.55;;
75892;SDS011;64572;50.950;3.676;2023-02-20T04:13:47;25.73;;;7.20;;
75892;SDS011;64572;50.950;3.676;2023-02-20T04:16:15;29.83;;;8.18;;
75892;SDS011;64572;50.950;3.676;2023-02-20T04:18:41;26.30;;;7.82;;
75892;SDS011;64572;50.950;3.676;2023-02-20T04:21:09;25.33;;;7.05;;
75892;SDS011;64572;50.950;3.676;2023-02-20T04:23:44;26.02;;;7.82;;
75892;SDS011;64572;50.950;3.676;2023-02-20T04:26:15;26.30;;;8.57;;
75892;SDS011;64572;50.950;3.676;2023-02-20T04:28:43;26.25;;;8.88;;
75892;SDS011;64572;50.950;3.676;2023-02-20T04:31:10;28.55;;;9.45;;
75892;SDS011;64572;50.950;3.676;2023-02-20T04:33:38;26.08;;;9.00;;
75892;SDS011;64572;50.950;3.676;2023-02-20T04:36:03;24.83;;;8.30;;
75892;SDS011;64572;50.950;3.676;2023-02-20T04:38:29;30.33;;;10.20;;
75892;SDS011;64572;50.950;3.676;2023-02-20T04:40:55;25.48;;;8.93;;
75892;SDS011;64572;50.950;3.676;2023-02-20T04:43:21;19.58;;;5.82;;
75892;SDS011;64572;50.950;3.676;2023-02-20T04:45:46;23.45;;;7.90;;
75892;SDS011;64572;50.950;3.676;2023-02-20T04:48:12;26.40;;;8.63;;
75892;SDS011;64572;50.950;3.676;2023-02-20T04:50:38;31.35;;;8.65;;
75892;SDS011;64572;50.950;3.676;2023-02-20T04:53:05;24.02;;;7.28;;
75892;SDS011;64572;50.950;3.676;2023-02-20T04:55:30;27.73;;;9.27;;
75892;SDS011;64572;50.950;3.676;2023-02-20T04:57:56;29.55;;;9.68;;
75892;SDS011;64572;50.950;3.676;2023-02-20T05:00:23;32.78;;;10.65;;
75892;SDS011;64572;50.950;3.676;2023-02-20T05:02:50;26.88;;;10.95;;
75892;SDS011;64572;50.950;3.676;2023-02-20T05:07:47;34.38;;;11.93;;
75892;SDS011;64572;50.950;3.676;2023-02-20T05:10:18;36.30;;;10.15;;
75892;SDS011;64572;50.950;3.676;2023-02-20T05:12:45;29.77;;;10.85;;
75892;SDS011;64572;50.950;3.676;2023-02-20T05:15:11;28.20;;;10.57;;
75892;SDS011;64572;50.950;3.676;2023-02-20T05:17:37;27.17;;;10.45;;
75892;SDS011;64572;50.950;3.676;2023-02-20T05:20:03;33.05;;;12.68;;
75892;SDS011;64572;50.950;3.676;2023-02-20T05:22:29;38.70;;;12.75;;
75892;SDS011;64572;50.950;3.676;2023-02-20T05:24:55;27.75;;;9.95;;
75892;SDS011;64572;50.950;3.676;2023-02-20T05:27:21;42.97;;;13.10;;
75892;SDS011;64572;50.950;3.676;2023-02-20T05:29:48;35.75;;;12.20;;
75892;SDS011;64572;50.950;3.676;2023-02-20T05:32:19;31.80;;;12.90;;
75892;SDS011;64572;50.950;3.676;2023-02-20T05:34:46;18.40;;;6.63;;
75892;SDS011;64572;50.950;3.676;2023-02-20T05:37:13;26.77;;;11.73;;
75892;SDS011;64572;50.950;3.676;2023-02-20T05:39:40;33.13;;;12.88;;
75892;SDS011;64572;50.950;3.676;2023-02-20T05:42:06;28.35;;;11.45;;
75892;SDS011;64572;50.950;3.676;2023-02-20T05:44:32;24.40;;;9.73;;
75892;SDS011;64572;50.950;3.676;2023-02-20T05:46:58;21.58;;;8.32;;
75892;SDS011;64572;50.950;3.676;2023-02-20T05:49:24;26.33;;;8.02;;
75892;SDS011;64572;50.950;3.676;2023-02-20T05:51:50;29.55;;;11.52;;
75892;SDS011;64572;50.950;3.676;2023-02-20T05:54:17;23.98;;;6.43;;
75892;SDS011;64572;50.950;3.676;2023-02-20T05:56:43;23.25;;;8.73;;
75892;SDS011;64572;50.950;3.676;2023-02-20T05:59:10;30.20;;;10.52;;
75892;SDS011;64572;50.950;3.676;2023-02-20T06:01:37;29.13;;;9.35;;
75892;SDS011;64572;50.950;3.676;2023-02-20T06:04:02;23.98;;;9.68;;
75892;SDS011;64572;50.950;3.676;2023-02-20T06:06:46;27.90;;;12.60;;
75892;SDS011;64572;50.950;3.676;2023-02-20T06:09:12;27.15;;;9.13;;
75892;SDS011;64572;50.950;3.676;2023-02-20T06:11:46;18.00;;;7.03;;
75892;SDS011;64572;50.950;3.676;2023-02-20T06:14:16;32.30;;;12.80;;
75892;SDS011;64572;50.950;3.676;2023-02-20T06:16:43;31.00;;;11.27;;
75892;SDS011;64572;50.950;3.676;2023-02-20T06:19:09;25.45;;;9.13;;
75892;SDS011;64572;50.950;3.676;2023-02-20T06:21:35;24.40;;;9.55;;
75892;SDS011;64572;50.950;3.676;2023-02-20T06:24:04;35.47;;;14.00;;
75892;SDS011;64572;50.950;3.676;2023-02-20T06:26:30;34.45;;;12.15;;
75892;SDS011;64572;50.950;3.676;2023-02-20T06:28:56;27.45;;;10.40;;
75892;SDS011;64572;50.950;3.676;2023-02-20T06:31:23;33.47;;;10.23;;
75892;SDS011;64572;50.950;3.676;2023-02-20T06:33:52;26.35;;;6.75;;
75892;SDS011;64572;50.950;3.676;2023-02-20T06:36:28;17.35;;;6.65;;
75892;SDS011;64572;50.950;3.676;2023-02-20T06:38:56;16.80;;;6.45;;
75892;SDS011;64572;50.950;3.676;2023-02-20T06:41:22;21.50;;;9.45;;
75892;SDS011;64572;50.950;3.676;2023-02-20T06:43:48;25.50;;;8.93;;
75892;SDS011;64572;50.950;3.676;2023-02-20T06:46:14;23.77;;;6.05;;
75892;SDS011;64572;50.950;3.676;2023-02-20T06:48:46;19.65;;;6.97;;
75892;SDS011;64572;50.950;3.676;2023-02-20T06:51:17;23.92;;;8.95;;
75892;SDS011;64572;50.950;3.676;2023-02-20T06:53:44;26.77;;;5.78;;
75892;SDS011;64572;50.950;3.676;2023-02-20T06:56:10;23.38;;;8.05;;
75892;SDS011;64572;50.950;3.676;2023-02-20T06:58:42;27.65;;;8.48;;
75892;SDS011;64572;50.950;3.676;2023-02-20T07:01:09;28.23;;;9.17;;
75892;SDS011;64572;50.950;3.676;2023-02-20T07:03:35;22.17;;;5.82;;
75892;SDS011;64572;50.950;3.676;2023-02-20T07:06:01;19.92;;;7.78;;
75892;SDS011;64572;50.950;3.676;2023-02-20T07:08:27;21.42;;;7.57;;
75892;SDS011;64572;50.950;3.676;2023-02-20T07:10:52;27.92;;;7.50;;
75892;SDS011;64572;50.950;3.676;2023-02-20T07:13:19;35.80;;;10.18;;
75892;SDS011;64572;50.950;3.676;2023-02-20T07:15:46;30.13;;;8.40;;
75892;SDS011;64572;50.950;3.676;2023-02-20T07:18:12;30.13;;;9.80;;
75892;SDS011;64572;50.950;3.676;2023-02-20T07:20:38;20.60;;;6.60;;
75892;SDS011;64572;50.950;3.676;2023-02-20T07:23:04;27.63;;;9.60;;
75892;SDS011;64572;50.950;3.676;2023-02-20T07:25:30;21.73;;;8.45;;
75892;SDS011;64572;50.950;3.676;2023-02-20T07:27:55;26.88;;;9.40;;
75892;SDS011;64572;50.950;3.676;2023-02-20T07:30:21;26.08;;;10.95;;
75892;SDS011;64572;50.950;3.676;2023-02-20T07:32:49;21.77;;;8.75;;
75892;SDS011;64572;50.950;3.676;2023-02-20T07:35:15;31.40;;;10.80;;
75892;SDS011;64572;50.950;3.676;2023-02-20T07:37:40;28.75;;;11.00;;
75892;SDS011;64572;50.950;3.676;2023-02-20T07:40:06;26.02;;;12.27;;
75892;SDS011;64572;50.950;3.676;2023-02-20T07:42:32;28.52;;;7.05;;
75892;SDS011;64572;50.950;3.676;2023-02-20T07:44:58;37.83;;;13.07;;
75892;SDS011;64572;50.950;3.676;2023-02-20T07:47:24;23.73;;;8.75;;
75892;SDS011;64572;50.950;3.676;2023-02-20T07:49:50;32.42;;;13.40;;
75892;SDS011;64572;50.950;3.676;2023-02-20T07:52:15;29.42;;;12.18;;
75892;SDS011;64572;50.950;3.676;2023-02-20T07:54:41;26.85;;;11.82;;
75892;SDS011;64572;50.950;3.676;2023-02-20T07:57:07;23.88;;;12.60;;
75892;SDS011;64572;50.950;3.676;2023-02-20T07:59:33;24.48;;;10.18;;
75892;SDS011;64572;50.950;3.676;2023-02-20T08:01:59;24.45;;;9.70;;
75892;SDS011;64572;50.950;3.676;2023-02-20T08:04:24;30.60;;;13.23;;
75892;SDS011;64572;50.950;3.676;2023-02-20T08:06:51;25.48;;;11.50;;
75892;SDS011;64572;50.950;3.676;2023-02-20T08:09:17;23.17;;;9.85;;
75892;SDS011;64572;50.950;3.676;2023-02-20T08:11:43;24.95;;;10.90;;
75892;SDS011;64572;50.950;3.676;2023-02-20T08:14:09;29.60;;;11.32;;
75892;SDS011;64572;50.950;3.676;2023-02-20T08:16:36;22.50;;;8.45;;
75892;SDS011;64572;50.950;3.676;2023-02-20T08:19:02;33.80;;;13.00;;
75892;SDS011;64572;50.950;3.676;2023-02-20T08:21:28;29.63;;;12.85;;
75892;SDS011;64572;50.950;3.676;2023-02-20T08:23:53;30.80;;;12.85;;
75892;SDS011;64572;50.950;3.676;2023-02-20T08:26:19;25.80;;;11.43;;
75892;SDS011;64572;50.950;3.676;2023-02-20T08:28:46;28.23;;;11.20;;
75892;SDS011;64572;50.950;3.676;2023-02-20T08:31:12;25.90;;;9.77;;
75892;SDS011;64572;50.950;3.676;2023-02-20T08:33:38;32.08;;;12.30;;
75892;SDS011;64572;50.950;3.676;2023-02-20T08:36:04;28.20;;;11.70;;
75892;SDS011;64572;50.950;3.676;2023-02-20T08:38:31;24.48;;;10.27;;
75892;SDS011;64572;50.950;3.676;2023-02-20T08:43:26;26.60;;;9.93;;
75892;SDS011;64572;50.950;3.676;2023-02-20T08:45:52;30.20;;;12.20;;
75892;SDS011;64572;50.950;3.676;2023-02-20T08:48:17;25.15;;;9.98;;
75892;SDS011;64572;50.950;3.676;2023-02-20T08:50:43;15.05;;;5.28;;
75892;SDS011;64572;50.950;3.676;2023-02-20T08:53:10;29.77;;;9.32;;
75892;SDS011;64572;50.950;3.676;2023-02-20T08:55:37;26.25;;;10.32;;
75892;SDS011;64572;50.950;3.676;2023-02-20T08:58:02;28.88;;;12.30;;
75892;SDS011;64572;50.950;3.676;2023-02-20T09:00:28;20.58;;;8.90;;
75892;SDS011;64572;50.950;3.676;2023-02-20T09:02:54;24.90;;;10.00;;
75892;SDS011;64572;50.950;3.676;2023-02-20T09:05:19;25.35;;;9.95;;
75892;SDS011;64572;50.950;3.676;2023-02-20T09:07:45;18.40;;;7.43;;
75892;SDS011;64572;50.950;3.676;2023-02-20T09:10:11;17.10;;;6.88;;
75892;SDS011;64572;50.950;3.676;2023-02-20T09:12:37;26.25;;;8.55;;
75892;SDS011;64572;50.950;3.676;2023-02-20T09:15:06;21.95;;;8.88;;
75892;SDS011;64572;50.950;3.676;2023-02-20T09:17:33;16.17;;;5.07;;
75892;SDS011;64572;50.950;3.676;2023-02-20T09:19:58;21.80;;;8.60;;
75892;SDS011;64572;50.950;3.676;2023-02-20T09:22:25;22.05;;;7.85;;
75892;SDS011;64572;50.950;3.676;2023-02-20T09:24:51;23.58;;;7.95;;
75892;SDS011;64572;50.950;3.676;2023-02-20T09:27:18;22.60;;;6.78;;
75892;SDS011;64572;50.950;3.676;2023-02-20T09:29:44;12.80;;;4.65;;
75892;SDS011;64572;50.950;3.676;2023-02-20T09:32:10;23.88;;;5.75;;
75892;SDS011;64572;50.950;3.676;2023-02-20T09:34:37;28.73;;;6.68;;
75892;SDS011;64572;50.950;3.676;2023-02-20T09:37:02;15.32;;;5.65;;
75892;SDS011;64572;50.950;3.676;2023-02-20T09:39:28;15.77;;;5.93;;
75892;SDS011;64572;50.950;3.676;2023-02-20T09:45:01;27.52;;;10.07;;
75892;SDS011;64572;50.950;3.676;2023-02-20T09:52:58;26.10;;;9.35;;
75892;SDS011;64572;50.950;3.676;2023-02-20T09:55:45;20.10;;;6.78;;
75892;SDS011;64572;50.950;3.676;2023-02-20T09:58:17;24.65;;;8.45;;
75892;SDS011;64572;50.950;3.676;2023-02-20T10:01:05;24.52;;;8.98;;
75892;SDS011;64572;50.950;3.676;2023-02-20T10:06:17;25.95;;;9.68;;
75892;SDS011;64572;50.950;3.676;2023-02-20T10:08:49;21.73;;;7.88;;
75892;SDS011;64572;50.950;3.676;2023-02-20T10:11:24;23.33;;;8.20;;
75892;SDS011;64572;50.950;3.676;2023-02-20T10:13:58;27.17;;;12.35;;
75892;SDS011;64572;50.950;3.676;2023-02-20T10:16:31;18.70;;;6.85;;
75892;SDS011;64572;50.950;3.676;2023-02-20T10:19:08;29.38;;;9.68;;
75892;SDS011;64572;50.950;3.676;2023-02-20T10:25:44;30.13;;;11.02;;
75892;SDS011;64572;50.950;3.676;2023-02-20T10:32:55;30.48;;;8.85;;
75892;SDS011;64572;50.950;3.676;2023-02-20T10:35:55;19.02;;;7.50;;
75892;SDS011;64572;50.950;3.676;2023-02-20T10:38:36;23.25;;;10.13;;
75892;SDS011;64572;50.950;3.676;2023-02-20T10:43:49;18.95;;;7.72;;
75892;SDS011;64572;50.950;3.676;2023-02-20T10:46:27;16.40;;;5.30;;
75892;SDS011;64572;50.950;3.676;2023-02-20T10:48:58;17.00;;;6.05;;
75892;SDS011;64572;50.950;3.676;2023-02-20T10:51:31;22.33;;;8.10;;
75892;SDS011;64572;50.950;3.676;2023-02-20T10:54:07;13.95;;;5.88;;
75892;SDS011;64572;50.950;3.676;2023-02-20T10:56:44;17.42;;;5.75;;
75892;SDS011;64572;50.950;3.676;2023-02-20T10:59:29;22.90;;;8.45;;
75892;SDS011;64572;50.950;3.676;2023-02-20T11:02:01;23.17;;;8.43;;
75892;SDS011;64572;50.950;3.676;2023-02-20T11:04:34;17.50;;;8.45;;
75892;SDS011;64572;50.950;3.676;2023-02-20T11:07:04;14.52;;;5.50;;
75892;SDS011;64572;50.950;3.676;2023-02-20T11:09:37;24.38;;;6.95;;
75892;SDS011;64572;50.950;3.676;2023-02-20T11:12:05;19.48;;;5.78;;
75892;SDS011;64572;50.950;3.676;2023-02-20T11:14:32;14.73;;;5.30;;
75892;SDS011;64572;50.950;3.676;2023-02-20T11:17:08;21.17;;;6.15;;
75892;SDS011;64572;50.950;3.676;2023-02-20T11:22:16;24.25;;;8.35;;
75892;SDS011;64572;50.950;3.676;2023-02-20T11:24:43;25.90;;;8.85;;
75892;SDS011;64572;50.950;3.676;2023-02-20T11:29:51;21.40;;;8.13;;
75892;SDS011;64572;50.950;3.676;2023-02-20T11:32:24;13.20;;;5.45;;
75892;SDS011;64572;50.950;3.676;2023-02-20T11:37:38;24.55;;;8.60;;
75892;SDS011;64572;50.950;3.676;2023-02-20T11:40:04;21.63;;;8.32;;
75892;SDS011;64572;50.950;3.676;2023-02-20T11:42:41;17.45;;;5.55;;
75892;SDS011;64572;50.950;3.676;2023-02-20T11:45:15;21.83;;;8.82;;
75892;SDS011;64572;50.950;3.676;2023-02-20T11:47:45;18.80;;;6.18;;
75892;SDS011;64572;50.950;3.676;2023-02-20T11:50:56;19.52;;;6.07;;
75892;SDS011;64572;50.950;3.676;2023-02-20T11:55:49;26.30;;;9.43;;
75892;SDS011;64572;50.950;3.676;2023-02-20T11:58:38;14.52;;;5.80;;
75892;SDS011;64572;50.950;3.676;2023-02-20T12:01:06;14.98;;;5.72;;
75892;SDS011;64572;50.950;3.676;2023-02-20T12:03:33;14.25;;;5.72;;
75892;SDS011;64572;50.950;3.676;2023-02-20T12:06:01;12.85;;;6.35;;
75892;SDS011;64572;50.950;3.676;2023-02-20T12:08:48;23.30;;;10.57;;
75892;SDS011;64572;50.950;3.676;2023-02-20T12:11:19;22.75;;;9.52;;
75892;SDS011;64572;50.950;3.676;2023-02-20T12:13:50;31.48;;;5.78;;
75892;SDS011;64572;50.950;3.676;2023-02-20T12:21:39;22.60;;;9.60;;
75892;SDS011;64572;50.950;3.676;2023-02-20T12:39:19;15.90;;;5.95;;
75892;SDS011;64572;50.950;3.676;2023-02-20T12:42:15;14.20;;;4.95;;
75892;SDS011;64572;50.950;3.676;2023-02-20T12:47:46;16.13;;;7.63;;
75892;SDS011;64572;50.950;3.676;2023-02-20T12:56:17;25.15;;;8.82;;
75892;SDS011;64572;50.950;3.676;2023-02-20T13:01:47;18.83;;;7.35;;
75892;SDS011;64572;50.950;3.676;2023-02-20T13:06:52;22.13;;;6.93;;
75892;SDS011;64572;50.950;3.676;2023-02-20T13:09:34;17.60;;;7.38;;
75892;SDS011;64572;50.950;3.676;2023-02-20T13:12:06;22.88;;;8.38;;
75892;SDS011;64572;50.950;3.676;2023-02-20T13:15:25;21.38;;;9.27;;
75892;SDS011;64572;50.950;3.676;2023-02-20T13:22:38;16.23;;;6.97;;
75892;SDS011;64572;50.950;3.676;2023-02-20T13:28:20;19.63;;;6.68;;
75892;SDS011;64572;50.950;3.676;2023-02-20T13:46:58;22.55;;;7.20;;
75892;SDS011;64572;50.950;3.676;2023-02-20T13:55:23;13.35;;;6.28;;
75892;SDS011;64572;50.950;3.676;2023-02-20T14:00:23;19.05;;;6.53;;
75892;SDS011;64572;50.950;3.676;2023-02-20T14:02:52;23.10;;;6.07;;
75892;SDS011;64572;50.950;3.676;2023-02-20T14:07:55;22.05;;;10.18;;
75892;SDS011;64572;50.950;3.676;2023-02-20T14:10:29;28.48;;;11.18;;
75892;SDS011;64572;50.950;3.676;2023-02-20T14:12:56;18.92;;;8.15;;
75892;SDS011;64572;50.950;3.676;2023-02-20T14:15:26;23.52;;;9.70;;
75892;SDS011;64572;50.950;3.676;2023-02-20T14:17:54;26.60;;;9.95;;
75892;SDS011;64572;50.950;3.676;2023-02-20T14:20:30;20.98;;;9.30;;
75892;SDS011;64572;50.950;3.676;2023-02-20T14:23:09;17.80;;;4.17;;
75892;SDS011;64572;50.950;3.676;2023-02-20T14:25:58;22.45;;;6.35;;
75892;SDS011;64572;50.950;3.676;2023-02-20T14:28:25;16.10;;;7.15;;
75892;SDS011;64572;50.950;3.676;2023-02-20T14:33:46;20.58;;;8.38;;
75892;SDS011;64572;50.950;3.676;2023-02-20T14:42:14;22.98;;;8.27;;
75892;SDS011;64572;50.950;3.676;2023-02-20T14:44:46;24.92;;;8.23;;
75892;SDS011;64572;50.950;3.676;2023-02-20T14:47:14;26.42;;;10.05;;
75892;SDS011;64572;50.950;3.676;2023-02-20T14:49:41;12.80;;;4.32;;
75892;SDS011;64572;50.950;3.676;2023-02-20T14:52:16;20.58;;;7.55;;
75892;SDS011;64572;50.950;3.676;2023-02-20T14:55:01;17.67;;;7.85;;
75892;SDS011;64572;50.950;3.676;2023-02-20T14:57:30;24.55;;;8.57;;
75892;SDS011;64572;50.950;3.676;2023-02-20T15:00:22;14.55;;;6.47;;
75892;SDS011;64572;50.950;3.676;2023-02-20T15:02:50;19.10;;;8.60;;
75892;SDS011;64572;50.950;3.676;2023-02-20T15:05:18;26.65;;;10.48;;
75892;SDS011;64572;50.950;3.676;2023-02-20T15:07:51;25.75;;;10.02;;
75892;SDS011;64572;50.950;3.676;2023-02-20T15:10:31;22.60;;;9.95;;
75892;SDS011;64572;50.950;3.676;2023-02-20T15:13:13;23.67;;;9.50;;
75892;SDS011;64572;50.950;3.676;2023-02-20T15:15:49;20.48;;;7.93;;
75892;SDS011;64572;50.950;3.676;2023-02-20T15:18:38;15.02;;;7.53;;
75892;SDS011;64572;50.950;3.676;2023-02-20T15:21:06;13.65;;;5.22;;
75892;SDS011;64572;50.950;3.676;2023-02-20T15:23:34;22.65;;;8.55;;
75892;SDS011;64572;50.950;3.676;2023-02-20T15:28:46;19.15;;;8.85;;
75892;SDS011;64572;50.950;3.676;2023-02-20T15:33:54;15.13;;;6.25;;
75892;SDS011;64572;50.950;3.676;2023-02-20T15:36:23;21.02;;;10.07;;
75892;SDS011;64572;50.950;3.676;2023-02-20T15:38:51;22.02;;;9.32;;
75892;SDS011;64572;50.950;3.676;2023-02-20T15:41:17;25.50;;;9.50;;
75892;SDS011;64572;50.950;3.676;2023-02-20T15:43:45;11.93;;;4.95;;
75892;SDS011;64572;50.950;3.676;2023-02-20T15:46:12;23.03;;;9.43;;
75892;SDS011;64572;50.950;3.676;2023-02-20T15:48:39;22.17;;;10.40;;
75892;SDS011;64572;50.950;3.676;2023-02-20T15:51:05;20.77;;;10.68;;
75892;SDS011;64572;50.950;3.676;2023-02-20T15:53:33;23.60;;;10.40;;
75892;SDS011;64572;50.950;3.676;2023-02-20T15:56:00;26.10;;;11.03;;
75892;SDS011;64572;50.950;3.676;2023-02-20T16:01:00;23.95;;;10.55;;
75892;SDS011;64572;50.950;3.676;2023-02-20T16:03:28;22.75;;;9.40;;
75892;SDS011;64572;50.950;3.676;2023-02-20T16:05:54;26.95;;;10.02;;
75892;SDS011;64572;50.950;3.676;2023-02-20T16:08:20;18.45;;;9.88;;
75892;SDS011;64572;50.950;3.676;2023-02-20T16:10:47;19.40;;;8.40;;
75892;SDS011;64572;50.950;3.676;2023-02-20T16:13:31;29.77;;;13.52;;
75892;SDS011;64572;50.950;3.676;2023-02-20T16:16:08;22.75;;;12.07;;
75892;SDS011;64572;50.950;3.676;2023-02-20T16:18:41;32.10;;;12.75;;
75892;SDS011;64572;50.950;3.676;2023-02-20T16:21:09;18.15;;;8.30;;
75892;SDS011;64572;50.950;3.676;2023-02-20T16:23:36;24.10;;;11.73;;
75892;SDS011;64572;50.950;3.676;2023-02-20T16:26:04;16.42;;;7.25;;
75892;SDS011;64572;50.950;3.676;2023-02-20T16:28:31;21.27;;;9.63;;
75892;SDS011;64572;50.950;3.676;2023-02-20T16:30:57;22.23;;;9.63;;
75892;SDS011;64572;50.950;3.676;2023-02-20T16:33:23;29.70;;;13.95;;
75892;SDS011;64572;50.950;3.676;2023-02-20T16:35:50;23.70;;;12.15;;
75892;SDS011;64572;50.950;3.676;2023-02-20T16:38:16;27.25;;;12.98;;
75892;SDS011;64572;50.950;3.676;2023-02-20T16:40:43;21.95;;;10.48;;
75892;SDS011;64572;50.950;3.676;2023-02-20T16:43:12;20.23;;;8.63;;
75892;SDS011;64572;50.950;3.676;2023-02-20T16:45:39;29.98;;;13.82;;
75892;SDS011;64572;50.950;3.676;2023-02-20T16:50:43;18.48;;;8.82;;
75892;SDS011;64572;50.950;3.676;2023-02-20T16:53:11;14.30;;;6.32;;
75892;SDS011;64572;50.950;3.676;2023-02-20T16:55:37;18.15;;;7.80;;
75892;SDS011;64572;50.950;3.676;2023-02-20T16:58:08;17.23;;;8.40;;
75892;SDS011;64572;50.950;3.676;2023-02-20T17:00:34;17.02;;;7.32;;
75892;SDS011;64572;50.950;3.676;2023-02-20T17:03:04;17.63;;;7.88;;
75892;SDS011;64572;50.950;3.676;2023-02-20T17:05:31;17.20;;;7.15;;
75892;SDS011;64572;50.950;3.676;2023-02-20T17:07:58;23.60;;;12.88;;
75892;SDS011;64572;50.950;3.676;2023-02-20T17:10:25;23.80;;;12.93;;
75892;SDS011;64572;50.950;3.676;2023-02-20T17:12:52;29.67;;;16.23;;
75892;SDS011;64572;50.950;3.676;2023-02-20T17:15:20;25.33;;;11.75;;
75892;SDS011;64572;50.950;3.676;2023-02-20T17:17:48;29.63;;;16.08;;
75892;SDS011;64572;50.950;3.676;2023-02-20T17:20:14;30.33;;;14.32;;